createdAt,value
2019-04-23T00:00:07.319Z,4.27
2019-04-23T00:05:51.447Z,6.07
2019-04-23T00:08:25.854Z,5.00
2019-04-23T00:10:53.392Z,8.33
2019-04-23T00:13:24.171Z,5.50
2019-04-23T00:16:03.015Z,4.47
2019-04-23T00:18:37.367Z,6.57
2019-04-23T00:21:24.823Z,5.77
2019-04-23T00:23:59.545Z,7.37
2019-04-23T00:26:24.036Z,6.63
2019-04-23T00:31:36.233Z,4.27
2019-04-23T00:33:57.807Z,5.73
2019-04-23T00:36:32.737Z,6.40
2019-04-23T00:38:59.267Z,4.93
2019-04-23T00:41:33.474Z,5.20
2019-04-23T00:44:02.721Z,8.27
2019-04-23T00:49:04.917Z,7.20
2019-04-23T00:51:38.006Z,6.47
2019-04-23T00:54:06.011Z,6.97
2019-04-23T00:56:55.417Z,7.33
2019-04-23T00:59:05.329Z,5.77
2019-04-23T01:01:50.122Z,6.23
2019-04-23T01:04:12.415Z,5.00
2019-04-23T01:06:45.965Z,5.47
2019-04-23T01:09:20.243Z,5.53
2019-04-23T01:11:46.579Z,5.27
2019-04-23T01:14:20.278Z,6.50
2019-04-23T01:16:42.573Z,6.03
2019-04-23T01:19:54.828Z,5.67
2019-04-23T01:22:10.491Z,4.93
2019-04-23T01:24:46.694Z,5.17
2019-04-23T01:30:17.842Z,6.07
2019-04-23T01:32:46.568Z,6.93
2019-04-23T01:37:46.589Z,9.53
2019-04-23T01:40:27.229Z,7.23
2019-04-23T01:42:49.320Z,8.63
2019-04-23T01:45:24.282Z,7.63
2019-04-23T01:47:58.003Z,6.57
2019-04-23T01:50:32.706Z,7.00
2019-04-23T01:55:33.039Z,5.80
2019-04-23T01:58:23.738Z,5.10
2019-04-23T02:00:41.011Z,5.43
2019-04-23T02:03:20.674Z,6.90
2019-04-23T02:05:42.636Z,6.10
2019-04-23T02:08:09.532Z,5.60
2019-04-23T02:13:16.819Z,6.97
2019-04-23T02:15:42.475Z,5.90
2019-04-23T02:18:17.969Z,6.33
2019-04-23T02:20:47.849Z,4.07
2019-04-23T02:26:46.800Z,5.67
2019-04-23T02:29:14.911Z,7.73
2019-04-23T02:36:45.195Z,7.87
2019-04-23T02:39:19.787Z,6.20
2019-04-23T02:42:00.727Z,8.03
2019-04-23T02:44:16.690Z,7.50
2019-04-23T02:46:53.913Z,5.43
2019-04-23T02:52:10.875Z,7.30
2019-04-23T02:54:38.206Z,7.23
2019-04-23T02:57:05.700Z,7.50
2019-04-23T02:59:40.004Z,7.77
2019-04-23T03:02:15.445Z,8.73
2019-04-23T03:04:34.853Z,4.47
2019-04-23T03:09:37.006Z,9.07
2019-04-23T03:12:26.586Z,6.50
2019-04-23T03:14:41.713Z,8.77
2019-04-23T03:17:11.095Z,8.63
2019-04-23T03:22:50.725Z,7.10
2019-04-23T03:28:33.363Z,6.77
2019-04-23T03:38:41.743Z,6.90
2019-04-23T03:41:06.963Z,8.90
2019-04-23T03:43:34.081Z,8.27
2019-04-23T03:46:16.167Z,7.43
2019-04-23T03:51:01.362Z,6.93
2019-04-23T04:01:11.909Z,6.07
2019-04-23T04:06:37.421Z,10.47
2019-04-23T04:08:50.809Z,6.83
2019-04-23T04:11:14.654Z,10.30
2019-04-23T04:13:51.351Z,6.50
2019-04-23T04:16:17.883Z,7.73
2019-04-23T04:18:57.288Z,10.17
2019-04-23T04:21:27.313Z,8.63
2019-04-23T04:24:05.440Z,7.23
2019-04-23T04:26:34.601Z,8.93
2019-04-23T04:31:43.032Z,6.03
2019-04-23T04:37:00.756Z,10.13
2019-04-23T04:39:19.521Z,22.60
2019-04-23T04:41:37.551Z,20.47
2019-04-23T04:46:55.539Z,25.77
2019-04-23T04:49:15.116Z,25.20
2019-04-23T04:56:58.151Z,21.97
2019-04-23T04:59:13.978Z,21.03
2019-04-23T05:02:00.505Z,24.20
2019-04-23T05:04:26.731Z,24.23
2019-04-23T05:07:02.231Z,20.97
2019-04-23T05:14:35.312Z,19.30
2019-04-23T05:19:40.798Z,20.43
2019-04-23T05:24:30.606Z,23.77
2019-04-23T05:27:01.094Z,18.77
2019-04-23T05:29:31.256Z,25.13
2019-04-23T05:31:58.040Z,18.23
2019-04-23T05:34:38.137Z,17.60
2019-04-23T05:37:04.193Z,19.93
2019-04-23T05:44:43.284Z,18.77
2019-04-23T05:47:16.062Z,22.17
2019-04-23T05:49:47.451Z,18.50
2019-04-23T05:52:18.625Z,17.23
2019-04-23T05:55:01.819Z,15.67
2019-04-23T05:57:13.774Z,19.07
2019-04-23T05:59:51.702Z,15.33
2019-04-23T06:02:20.389Z,16.17
2019-04-23T06:05:13.180Z,18.57
2019-04-23T06:10:00.576Z,16.17
2019-04-23T06:12:25.482Z,15.93
2019-04-23T06:14:57.401Z,13.77
2019-04-23T06:17:29.746Z,14.70
2019-04-23T06:22:45.586Z,14.30
2019-04-23T06:25:12.934Z,12.33
2019-04-23T06:27:40.180Z,15.10
2019-04-23T06:30:08.755Z,14.23
2019-04-23T06:32:44.747Z,12.20
2019-04-23T06:35:09.762Z,17.40
2019-04-23T06:38:13.620Z,16.80
2019-04-23T06:42:58.228Z,13.77
2019-04-23T06:45:27.742Z,12.20
2019-04-23T06:48:06.239Z,15.17
2019-04-23T06:50:35.422Z,13.40
2019-04-23T06:52:54.563Z,13.03
2019-04-23T06:55:40.754Z,13.73
2019-04-23T06:58:14.974Z,12.33
2019-04-23T07:00:41.859Z,12.37
2019-04-23T07:03:18.177Z,12.60
2019-04-23T07:06:11.924Z,12.17
2019-04-23T07:08:55.151Z,12.43
2019-04-23T07:11:08.310Z,12.13
2019-04-23T07:13:41.351Z,10.70
2019-04-23T07:16:08.030Z,11.43
2019-04-23T07:18:35.834Z,13.63
2019-04-23T07:21:15.394Z,9.90
2019-04-23T07:23:44.930Z,12.77
2019-04-23T07:26:20.397Z,9.33
2019-04-23T07:28:50.294Z,12.47
2019-04-23T07:31:20.230Z,15.10
2019-04-23T07:33:52.802Z,10.03
2019-04-23T07:36:24.341Z,9.80
2019-04-23T07:39:17.548Z,11.17
2019-04-23T07:48:03.765Z,9.07
2019-04-23T07:53:11.484Z,9.23
2019-04-23T07:55:39.710Z,8.10
2019-04-23T07:58:06.638Z,9.27
2019-04-23T08:00:44.358Z,9.97
2019-04-23T08:03:14.431Z,8.50
2019-04-23T08:08:09.191Z,8.67
2019-04-23T08:10:47.142Z,11.10
2019-04-23T08:13:27.916Z,11.80
2019-04-23T08:15:51.954Z,10.43
2019-04-23T08:18:19.870Z,7.80
2019-04-23T08:20:54.197Z,9.30
2019-04-23T08:23:46.800Z,8.53
2019-04-23T08:26:34.311Z,9.33
2019-04-23T08:29:06.342Z,9.37
2019-04-23T08:39:10.253Z,5.53
2019-04-23T08:41:46.038Z,6.17
2019-04-23T08:44:21.703Z,8.27
2019-04-23T08:47:02.666Z,7.67
2019-04-23T08:49:29.561Z,7.37
2019-04-23T08:52:09.590Z,6.90
2019-04-23T08:54:46.505Z,8.10
2019-04-23T08:57:08.736Z,5.60
2019-04-23T08:59:38.911Z,6.70
2019-04-23T09:02:22.057Z,7.97
2019-04-23T09:04:50.364Z,6.70
2019-04-23T09:07:16.779Z,6.90
2019-04-23T09:14:56.528Z,6.67
2019-04-23T09:17:16.775Z,6.37
2019-04-23T09:20:09.314Z,6.33
2019-04-23T09:24:55.643Z,7.03
2019-04-23T09:32:30.193Z,6.97
2019-04-23T09:35:27.499Z,7.40
2019-04-23T09:38:11.578Z,8.03
2019-04-23T09:43:47.137Z,6.47
2019-04-23T09:46:25.640Z,5.43
2019-04-23T09:49:06.311Z,8.20
2019-04-23T09:51:29.890Z,7.53
2019-04-23T09:54:04.295Z,6.53
2019-04-23T09:56:37.587Z,5.60
2019-04-23T09:59:09.119Z,7.23
2019-04-23T10:01:29.055Z,7.17
2019-04-23T10:03:50.875Z,5.37
2019-04-23T10:06:18.273Z,6.37
2019-04-23T10:08:47.529Z,6.47
2019-04-23T10:11:13.762Z,4.90
2019-04-23T10:13:45.072Z,5.50
2019-04-23T10:16:17.328Z,5.57
2019-04-23T10:18:47.011Z,6.30
2019-04-23T10:21:17.455Z,5.23
2019-04-23T10:23:47.653Z,6.97
2019-04-23T10:26:17.826Z,5.93
2019-04-23T10:28:58.165Z,6.47
2019-04-23T10:31:28.077Z,4.40
2019-04-23T10:33:58.047Z,6.33
2019-04-23T10:36:30.057Z,5.87
2019-04-23T10:39:06.099Z,5.20
2019-04-23T10:41:32.364Z,4.30
2019-04-23T10:44:13.017Z,5.70
2019-04-23T10:50:16.996Z,4.03
2019-04-23T10:52:53.779Z,5.60
2019-04-23T10:55:32.973Z,6.20
2019-04-23T10:57:49.465Z,5.57
2019-04-23T11:00:24.020Z,5.10
2019-04-23T11:02:51.004Z,4.10
2019-04-23T11:05:35.560Z,7.00
2019-04-23T11:07:47.135Z,4.37
2019-04-23T11:13:11.125Z,4.90
2019-04-23T11:18:08.985Z,5.37
2019-04-23T11:23:09.168Z,6.93
2019-04-23T11:25:59.156Z,4.93
2019-04-23T11:28:20.443Z,4.03
2019-04-23T11:30:55.263Z,4.33
2019-04-23T11:33:30.442Z,5.00
2019-04-23T11:36:35.781Z,4.60
2019-04-23T11:41:17.049Z,5.60
2019-04-23T11:43:33.053Z,4.20
2019-04-23T11:46:18.042Z,3.30
2019-04-23T11:48:52.282Z,3.57
2019-04-23T11:53:48.228Z,4.80
2019-04-23T11:56:31.120Z,3.77
2019-04-23T12:04:27.668Z,4.33
2019-04-23T12:07:20.619Z,6.33
2019-04-23T12:12:23.897Z,2.63
2019-04-23T12:15:18.090Z,3.77
2019-04-23T12:22:42.499Z,3.77
2019-04-23T12:25:18.123Z,3.30
2019-04-23T12:32:48.065Z,4.43
2019-04-23T12:37:58.673Z,3.60
2019-04-23T12:40:24.864Z,3.23
2019-04-23T12:48:02.209Z,4.43
2019-04-23T12:50:46.841Z,3.50
2019-04-23T12:53:29.336Z,2.90
2019-04-23T13:00:36.401Z,2.77
2019-04-23T13:03:24.626Z,3.03
2019-04-23T13:05:53.036Z,3.10
2019-04-23T13:08:30.444Z,3.17
2019-04-23T13:10:45.380Z,3.77
2019-04-23T13:13:23.832Z,3.43
2019-04-23T13:15:47.852Z,2.77
2019-04-23T13:18:22.965Z,2.70
2019-04-23T13:20:49.630Z,3.00
2019-04-23T13:26:00.917Z,3.83
2019-04-23T13:28:35.495Z,5.20
2019-04-23T13:33:42.154Z,3.37
2019-04-23T13:36:24.203Z,2.50
2019-04-23T13:41:19.214Z,2.47
2019-04-23T13:46:13.963Z,2.93
2019-04-23T13:48:40.029Z,3.67
2019-04-23T13:51:23.820Z,2.67
2019-04-23T13:53:59.327Z,2.63
2019-04-23T13:56:25.247Z,2.30
2019-04-23T13:58:51.882Z,3.40
2019-04-23T14:01:28.757Z,3.20
2019-04-23T14:11:26.291Z,3.70
2019-04-23T14:19:16.544Z,2.73
2019-04-23T14:21:51.482Z,3.87
2019-04-23T14:27:03.508Z,1.93
2019-04-23T14:29:32.392Z,1.90
2019-04-23T14:34:40.459Z,2.17
2019-04-23T14:37:06.238Z,3.03
2019-04-23T14:39:40.140Z,1.40
2019-04-23T14:45:10.031Z,2.87
2019-04-23T14:50:24.328Z,1.83
2019-04-23T14:52:45.958Z,2.00
2019-04-23T14:55:40.210Z,2.70
2019-04-23T14:57:42.391Z,2.53
2019-04-23T15:00:07.294Z,2.07
2019-04-23T15:02:48.254Z,2.30
2019-04-23T15:05:21.677Z,2.40
2019-04-23T15:07:42.127Z,1.60
2019-04-23T15:10:32.205Z,2.53
2019-04-23T15:12:46.284Z,2.00
2019-04-23T15:15:22.505Z,1.40
2019-04-23T15:17:51.934Z,1.33
2019-04-23T15:20:24.946Z,2.13
2019-04-23T15:23:13.902Z,1.57
2019-04-23T15:25:36.849Z,3.43
2019-04-23T15:28:07.564Z,1.83
2019-04-23T15:30:22.629Z,2.03
2019-04-23T15:33:11.694Z,1.43
2019-04-23T15:35:49.409Z,1.83
2019-04-23T15:38:30.436Z,1.63
2019-04-23T15:40:34.743Z,2.33
2019-04-23T15:43:12.188Z,2.00
2019-04-23T15:48:15.607Z,4.80
2019-04-23T15:50:43.465Z,4.50
2019-04-23T15:53:04.729Z,5.27
2019-04-23T15:58:30.012Z,6.73
2019-04-23T16:01:17.871Z,12.77
2019-04-23T16:03:17.529Z,16.87
2019-04-23T16:05:46.866Z,15.13
2019-04-23T16:08:51.731Z,11.87
2019-04-23T16:11:33.518Z,10.17
2019-04-23T16:14:15.706Z,8.40
2019-04-23T16:16:29.850Z,14.57
2019-04-23T16:19:25.806Z,9.53
2019-04-23T16:24:48.819Z,5.40
2019-04-23T16:29:46.636Z,3.47
2019-04-23T16:32:08.281Z,3.97
2019-04-23T16:34:38.109Z,4.97
2019-04-23T16:39:56.082Z,6.87
2019-04-23T16:42:26.720Z,6.90
2019-04-23T16:45:07.512Z,4.10
2019-04-23T16:52:26.484Z,5.53
2019-04-23T16:54:58.586Z,4.33
2019-04-23T17:00:13.170Z,5.67
2019-04-23T17:02:38.770Z,9.13
2019-04-23T17:05:16.123Z,6.50
2019-04-23T17:07:36.801Z,9.07
2019-04-23T17:10:16.087Z,10.30
2019-04-23T17:12:46.820Z,15.83
2019-04-23T17:15:21.186Z,9.30
2019-04-23T17:17:37.960Z,10.97
2019-04-23T17:20:16.212Z,6.33
2019-04-23T17:22:47.114Z,16.07
2019-04-23T17:25:22.402Z,11.17
2019-04-23T17:28:01.102Z,7.43
2019-04-23T17:30:28.111Z,7.47
2019-04-23T17:33:09.700Z,7.10
2019-04-23T17:35:31.073Z,10.43
2019-04-23T17:38:07.499Z,6.53
2019-04-23T17:40:50.207Z,5.37
2019-04-23T17:43:26.942Z,36.47
2019-04-23T17:45:57.222Z,72.50
2019-04-23T17:48:28.712Z,78.57
2019-04-23T17:51:11.575Z,95.13
2019-04-23T17:53:40.314Z,144.27
2019-04-23T18:01:22.300Z,61.30
2019-04-23T18:03:55.862Z,39.77
2019-04-23T18:09:00.537Z,57.53
2019-04-23T18:13:57.330Z,50.20
2019-04-23T18:19:05.789Z,35.97
2019-04-23T18:21:52.828Z,41.47
2019-04-23T18:24:16.731Z,31.83
2019-04-23T18:26:52.859Z,25.77
2019-04-23T18:29:43.978Z,22.43
2019-04-23T18:32:22.128Z,28.20
2019-04-23T18:37:32.549Z,26.17
2019-04-23T18:39:54.694Z,16.60
2019-04-23T18:42:39.867Z,19.13
2019-04-23T18:45:03.508Z,26.30
2019-04-23T18:47:40.451Z,20.27
2019-04-23T18:50:13.368Z,13.33
2019-04-23T18:55:29.788Z,13.13
2019-04-23T18:57:58.972Z,17.07
2019-04-23T19:00:38.019Z,16.30
2019-04-23T19:03:20.463Z,15.23
2019-04-23T19:06:13.295Z,19.43
2019-04-23T19:11:44.025Z,8.67
2019-04-23T19:14:11.156Z,10.03
2019-04-23T19:16:53.194Z,11.73
2019-04-23T19:19:09.658Z,5.37
2019-04-23T19:22:07.071Z,8.70
2019-04-23T19:24:18.724Z,18.17
2019-04-23T19:31:56.809Z,15.67
2019-04-23T19:34:36.292Z,12.37
2019-04-23T19:42:03.648Z,5.63
2019-04-23T19:44:40.662Z,6.83
2019-04-23T19:47:10.764Z,7.13
2019-04-23T19:49:56.585Z,6.53
2019-04-23T19:52:34.770Z,7.37
2019-04-23T19:57:33.835Z,9.10
2019-04-23T20:04:52.243Z,7.90
2019-04-23T20:09:51.755Z,7.00
2019-04-23T20:17:39.546Z,3.77
2019-04-23T20:19:55.014Z,5.67
2019-04-23T20:22:42.150Z,4.93
2019-04-23T20:32:07.103Z,4.97
2019-04-23T20:35:56.353Z,5.83
2019-04-23T20:38:59.638Z,3.37
2019-04-23T20:41:15.336Z,4.43
2019-04-23T20:43:32.461Z,4.20
2019-04-23T20:45:58.799Z,4.77
2019-04-23T20:48:44.732Z,4.67
2019-04-23T20:50:56.430Z,4.93
2019-04-23T20:53:34.908Z,4.13
2019-04-23T20:56:14.345Z,4.60
2019-04-23T20:58:47.543Z,3.60
2019-04-23T21:02:02.879Z,3.23
2019-04-23T21:04:36.851Z,3.60
2019-04-23T21:06:48.740Z,4.83
2019-04-23T21:14:26.742Z,4.07
2019-04-23T21:16:48.138Z,4.20
2019-04-23T21:19:25.147Z,4.30
2019-04-23T21:22:09.814Z,6.83
2019-04-23T21:24:42.333Z,2.07
2019-04-23T21:29:58.707Z,1.53
2019-04-23T21:32:35.290Z,2.73
2019-04-23T21:35:16.170Z,3.07
2019-04-23T21:38:00.318Z,5.03
2019-04-23T21:43:16.291Z,3.73
2019-04-23T21:46:02.456Z,2.83
2019-04-23T21:48:33.866Z,2.90
2019-04-23T21:51:03.319Z,2.97
2019-04-23T21:53:25.975Z,2.47
2019-04-23T21:56:06.874Z,2.80
2019-04-23T21:58:36.684Z,3.33
2019-04-23T22:01:21.362Z,1.80
2019-04-23T22:04:06.501Z,0.73
2019-04-23T22:06:21.883Z,5.10
2019-04-23T22:08:52.436Z,3.23
2019-04-23T22:11:43.877Z,3.80
2019-04-23T22:14:05.534Z,4.73
2019-04-23T22:16:23.442Z,1.90
2019-04-23T22:24:27.525Z,2.23
2019-04-23T22:26:58.394Z,1.17
2019-04-23T22:34:22.071Z,2.77
2019-04-23T22:37:03.899Z,0.90
2019-04-23T22:39:26.923Z,5.20
2019-04-23T22:41:59.456Z,2.67
2019-04-23T22:44:30.876Z,1.23
2019-04-23T22:47:03.965Z,1.77
2019-04-23T22:49:41.807Z,3.67
2019-04-23T22:52:16.595Z,2.87
2019-04-23T22:54:41.962Z,2.33
2019-04-23T22:57:04.853Z,2.50
2019-04-23T22:59:50.263Z,2.37
2019-04-23T23:02:26.937Z,1.53
2019-04-23T23:05:12.208Z,2.83
2019-04-23T23:07:28.943Z,2.03
2019-04-23T23:10:12.830Z,1.60
2019-04-23T23:12:49.272Z,0.93
2019-04-23T23:15:15.984Z,1.87
2019-04-23T23:17:43.036Z,2.23
2019-04-23T23:20:20.856Z,1.00
2019-04-23T23:22:47.326Z,2.30
2019-04-23T23:25:13.389Z,3.50
2019-04-23T23:27:50.210Z,1.50
2019-04-23T23:32:51.125Z,1.63
2019-04-23T23:37:48.187Z,2.43
2019-04-23T23:42:56.984Z,3.20
2019-04-23T23:45:27.187Z,2.93
2019-04-23T23:47:55.194Z,2.17
2019-04-23T23:50:27.084Z,2.80
2019-04-23T23:53:02.490Z,1.10
2019-04-23T23:55:27.688Z,2.00
2019-04-23T23:58:11.053Z,3.57
